DAC weather

Hazrat Shahjalal International Airport
Dhaka, Dhaka Division, Bangladesh

Public forecast

Using degrees Celsius for public forecast. Weather courtesy of forecast.io.

METAR (pilot weather report)

Retrieved 2019/08/20 15:30 UTC (0 seconds ago):

VGHS 201530Z 19006KT 4000 HZ SCT015 BKN100 30/24 Q1004 NOSIG

TAF (pilot weather forecast)

Retrieved 2019/08/20 12:00 UTC (3 hours ago):

TAF VGHS 201100Z 2012/2118 18008KT 4000 HZ SCT015 BKN100 BECMG 2020/2022 16006KT 3500 HZ SCT012 BKN100 TEMPO 2106/2112 18025KT 2000 RA/TSRA BKN008 FEW025CB OVC090